Time;durP1;ratioP1;P1;durP2;ratioP2;P2;SDS_P1;SDS_P2;PMS_P1;PMS_P2;Temp;Humidity;BMP_temperature;BMP_pressure;BME280_temperature;BME280_humidity;BME280_pressure;Samples;Min_cycle;Max_cycle;Signal;HPM_P1;HPM_P2
2022/02/23 00:02:15;;;;;;;17.07;4.35;;;;;;;3.13;72.55;99849.48;2206830;80;20993;-76
2022/02/23 00:05:17;;;;;;;14.23;4.65;;;;;;;3.15;72.78;99844.92;2203993;80;21024;-75
2022/02/23 00:08:19;;;;;;;18.73;5.42;;;;;;;3.20;72.78;99840.14;2207849;80;21025;-76
2022/02/23 00:34:06;;;;;;;13.62;4.83;;;;;;;3.39;72.68;99807.16;2209807;80;21018;-77
2022/02/23 00:37:07;;;;;;;11.08;4.40;;;;;;;3.44;72.69;99803.19;2208188;80;21827;-76
2022/02/23 00:40:11;;;;;;;11.80;4.42;;;;;;;3.45;72.81;99807.46;2179144;80;21505;-74
2022/02/23 00:43:12;;;;;;;12.95;4.33;;;;;;;3.46;72.83;99803.05;2165968;81;21021;-75
2022/02/23 00:46:13;;;;;;;12.80;5.17;;;;;;;3.46;73.10;99809.11;2165201;81;21544;-74
2022/02/23 00:49:15;;;;;;;12.47;4.10;;;;;;;3.44;73.17;99801.88;2164886;81;21006;-75
2022/02/23 00:52:17;;;;;;;13.30;4.70;;;;;;;3.44;73.35;99797.94;2164459;81;21521;-74
2022/02/23 00:55:19;;;;;;;16.87;4.47;;;;;;;3.45;73.59;99798.28;2164241;81;21037;-77
2022/02/23 00:58:20;;;;;;;13.62;4.67;;;;;;;3.46;73.79;99796.00;2163623;81;21017;-76
2022/02/23 01:01:22;;;;;;;22.42;5.35;;;;;;;3.46;73.98;99785.50;2164028;81;21044;-75
2022/02/23 01:04:25;;;;;;;8.95;4.20;;;;;;;3.46;74.15;99784.68;2164142;81;20990;-74
2022/02/23 01:07:26;;;;;;;14.13;4.90;;;;;;;3.46;74.64;99785.99;2162696;81;21049;-79
2022/02/23 01:10:28;;;;;;;14.10;5.42;;;;;;;3.42;74.66;99782.80;2161980;81;21033;-74
2022/02/23 01:13:30;;;;;;;17.52;5.62;;;;;;;3.38;74.88;99787.97;2162323;81;21033;-74
2022/02/23 01:16:32;;;;;;;14.87;5.10;;;;;;;3.33;75.16;99782.27;2162744;81;21061;-74
2022/02/23 01:19:33;;;;;;;10.65;4.58;;;;;;;3.28;75.48;99783.12;2148383;81;21012;-74
2022/02/23 01:22:37;;;;;;;11.93;4.45;;;;;;;3.27;75.60;99769.68;2166210;81;21009;-75
2022/02/23 01:25:38;;;;;;;16.85;4.72;;;;;;;3.27;75.75;99762.64;2109217;82;21626;-74
2022/02/23 01:28:40;;;;;;;12.25;4.53;;;;;;;3.29;75.95;99761.19;2163574;81;21046;-74
2022/02/23 01:31:41;;;;;;;11.93;4.55;;;;;;;3.30;76.15;99754.51;2163804;81;21045;-76
2022/02/23 01:34:43;;;;;;;11.95;4.70;;;;;;;3.33;76.21;99748.18;2163402;81;21052;-74
2022/02/23 01:37:45;;;;;;;11.57;4.90;;;;;;;3.34;76.39;99749.34;2165094;81;21034;-75
2022/02/23 01:40:46;;;;;;;11.45;4.83;;;;;;;3.33;76.74;99754.25;2197959;80;21558;-74
2022/02/23 01:43:49;;;;;;;10.03;4.90;;;;;;;3.31;76.92;99743.53;2205589;80;21525;-75
2022/02/23 01:46:50;;;;;;;10.00;4.87;;;;;;;3.29;77.46;99750.69;2206930;80;21301;-74
2022/02/23 01:49:53;;;;;;;8.43;4.05;;;;;;;3.25;77.58;99746.19;2205705;80;21037;-79
2022/02/23 01:52:55;;;;;;;8.53;3.80;;;;;;;3.25;77.51;99733.57;2210296;80;21104;-74
2022/02/23 01:55:56;;;;;;;8.58;3.90;;;;;;;3.29;77.97;99732.34;2206560;80;20985;-75
2022/02/23 01:58:58;;;;;;;6.67;3.83;;;;;;;3.33;78.11;99729.82;2208172;80;21029;-75
2022/02/23 02:02:00;;;;;;;12.23;4.20;;;;;;;3.36;77.95;99730.38;2207602;80;20999;-76
2022/02/23 02:05:07;;;;;;;7.67;3.60;;;;;;;3.43;78.06;99733.80;2208259;80;21001;-75
2022/02/23 02:08:09;;;;;;;6.15;3.42;;;;;;;3.45;78.31;99739.27;2209555;80;21378;-75
2022/02/23 02:11:10;;;;;;;10.20;4.05;;;;;;;3.44;78.70;99737.61;2210103;80;21025;-75
2022/02/23 02:14:12;;;;;;;8.40;4.05;;;;;;;3.42;78.85;99752.64;2183382;79;21616;-75
2022/02/23 02:17:13;;;;;;;7.55;3.50;;;;;;;3.38;79.05;99763.05;2203280;79;21020;-74
2022/02/23 02:20:15;;;;;;;8.73;3.75;;;;;;;3.37;79.30;99756.13;2158449;81;21056;-76
2022/02/23 02:23:17;;;;;;;6.10;3.60;;;;;;;3.34;79.56;99766.88;2177195;80;21095;-74
2022/02/23 02:26:18;;;;;;;8.05;3.40;;;;;;;3.35;79.43;99765.91;2179574;80;21029;-74
2022/02/23 02:29:20;;;;;;;6.05;3.27;;;;;;;3.37;79.76;99758.27;2214644;79;20997;-76
2022/02/23 02:32:21;;;;;;;6.08;3.30;;;;;;;3.39;79.79;99752.91;2212694;79;21000;-74
2022/02/23 02:35:23;;;;;;;6.15;3.58;;;;;;;3.42;80.10;99762.30;2216165;79;21033;-76
2022/02/23 02:38:25;;;;;;;8.53;3.55;;;;;;;3.44;80.25;99769.58;2212976;79;20943;-74
2022/02/23 02:41:26;;;;;;;6.78;3.77;;;;;;;3.46;80.20;99768.94;2197031;79;21096;-74
2022/02/23 02:44:30;;;;;;;5.20;3.35;;;;;;;3.48;80.49;99759.16;2130830;81;22234;-74
2022/02/23 02:47:31;;;;;;;5.00;3.12;;;;;;;3.47;80.77;99753.58;2177497;80;21449;-74
2022/02/23 02:50:33;;;;;;;5.28;3.00;;;;;;;3.50;80.48;99759.87;2142499;82;21028;-74
2022/02/23 02:53:35;;;;;;;4.33;2.52;;;;;;;3.52;80.77;99763.17;2175020;80;21024;-73
2022/02/23 02:56:38;;;;;;;2.52;2.15;;;;;;;3.53;81.08;99764.37;2138775;82;21495;-76
2022/02/23 02:59:39;;;;;;;5.35;2.42;;;;;;;3.57;81.01;99771.00;2176964;80;21041;-73
2022/02/23 03:02:41;;;;;;;3.90;2.33;;;;;;;3.65;81.96;99767.73;2142086;81;21007;-76
2022/02/23 03:05:43;;;;;;;2.90;2.10;;;;;;;3.68;81.92;99771.89;2138799;82;21037;-74
2022/02/23 03:08:46;;;;;;;3.40;1.92;;;;;;;3.71;81.65;99785.58;2180454;81;21108;-73
2022/02/23 03:11:49;;;;;;;4.97;2.50;;;;;;;3.74;82.00;99783.17;2152825;81;21048;-77
2022/02/23 03:14:50;;;;;;;2.58;2.00;;;;;;;3.76;81.55;99789.95;2152537;81;21079;-78
2022/02/23 03:17:52;;;;;;;3.90;2.05;;;;;;;3.76;81.86;99785.19;2170120;80;21024;-75
2022/02/23 03:20:54;;;;;;;2.77;2.12;;;;;;;3.79;81.59;99792.80;2165470;80;21079;-74
2022/02/23 03:23:55;;;;;;;4.55;2.35;;;;;;;3.79;81.78;99791.00;2168328;81;21498;-75
2022/02/23 03:26:57;;;;;;;3.77;1.95;;;;;;;3.86;81.69;99806.22;2171761;80;20997;-74
2022/02/23 03:29:59;;;;;;;4.28;2.33;;;;;;;3.90;81.66;99810.27;2141924;82;21036;-75
2022/02/23 03:33:00;;;;;;;4.97;2.20;;;;;;;3.92;81.68;99818.36;2175830;80;21017;-74
2022/02/23 03:36:02;;;;;;;3.87;2.12;;;;;;;3.96;81.96;99821.05;2136937;81;20994;-75
2022/02/23 03:39:05;;;;;;;4.70;2.62;;;;;;;3.99;81.99;99823.91;2179466;81;21111;-74
2022/02/23 03:42:07;;;;;;;3.92;3.00;;;;;;;4.04;82.35;99832.22;2189988;79;21008;-75
2022/02/23 03:45:09;;;;;;;4.17;2.98;;;;;;;4.07;82.14;99824.08;2190104;79;21550;-76
2022/02/23 03:48:11;;;;;;;5.37;3.05;;;;;;;4.10;81.97;99834.31;2202116;80;21055;-76
2022/02/23 03:51:13;;;;;;;7.03;2.90;;;;;;;4.15;82.06;99843.13;2202305;80;21004;-74
2022/02/23 03:54:14;;;;;;;4.00;2.67;;;;;;;4.17;81.98;99845.97;2182123;80;21072;-75
2022/02/23 03:57:16;;;;;;;5.42;2.85;;;;;;;4.17;81.89;99856.47;2200604;80;20982;-75
2022/02/23 04:00:18;;;;;;;6.75;2.60;;;;;;;4.16;82.20;99865.30;2205029;80;21523;-75
2022/02/23 04:03:19;;;;;;;4.92;2.22;;;;;;;4.16;82.11;99852.65;2203319;80;20985;-75
2022/02/23 04:06:23;;;;;;;10.13;2.40;;;;;;;4.20;82.37;99865.88;2202939;80;21094;-75
2022/02/23 04:09:24;;;;;;;6.25;2.50;;;;;;;4.26;82.10;99872.73;2201099;80;22246;-76
2022/02/23 04:12:26;;;;;;;7.30;2.20;;;;;;;4.31;81.72;99878.92;2165644;81;21013;-74
2022/02/23 04:15:27;;;;;;;12.70;2.90;;;;;;;4.35;81.34;99883.42;2184184;79;21036;-76
2022/02/23 04:18:29;;;;;;;8.73;2.40;;;;;;;4.40;81.03;99889.94;2193026;79;21055;-75
2022/02/23 04:21:31;;;;;;;8.45;2.65;;;;;;;4.45;80.55;99892.18;2166129;81;21072;-76
2022/02/23 04:24:32;;;;;;;10.38;2.25;;;;;;;4.50;80.18;99904.41;2212008;80;21068;-74
2022/02/23 04:27:34;;;;;;;6.60;2.22;;;;;;;4.51;80.05;99896.08;2214584;80;21036;-75
2022/02/23 04:30:36;;;;;;;10.63;2.47;;;;;;;4.53;79.50;99919.91;2207922;80;21536;-76
2022/02/23 04:33:38;;;;;;;11.28;2.60;;;;;;;4.56;79.11;99927.55;2145997;81;21043;-75
2022/02/23 04:36:40;;;;;;;10.80;2.83;;;;;;;4.57;78.69;99931.84;2207015;79;21035;-75
2022/02/23 04:39:42;;;;;;;9.70;2.67;;;;;;;4.58;77.79;99933.97;2160160;81;21139;-74
2022/02/23 04:42:43;;;;;;;11.85;3.15;;;;;;;4.60;78.00;99949.14;2182627;79;21017;-75
2022/02/23 04:45:45;;;;;;;10.70;2.80;;;;;;;4.58;77.37;99953.20;2170886;80;21068;-74
2022/02/23 04:48:47;;;;;;;11.35;2.45;;;;;;;4.57;77.52;99970.42;2139476;81;21036;-76
2022/02/23 04:51:50;;;;;;;8.35;2.15;;;;;;;4.53;77.25;99976.41;2160076;80;20971;-76
2022/02/23 04:54:55;;;;;;;10.60;2.62;;;;;;;4.52;77.31;99980.50;2145415;81;21504;-76
2022/02/23 04:57:56;;;;;;;11.80;2.55;;;;;;;4.51;76.71;99984.09;2179432;79;21032;-75
2022/02/23 05:00:58;;;;;;;13.93;3.37;;;;;;;4.52;76.86;100002.83;2179793;79;21017;-75
2022/02/23 05:04:00;;;;;;;15.63;2.60;;;;;;;4.50;75.53;99988.49;2181681;79;21016;-75
2022/02/23 05:07:01;;;;;;;10.50;2.67;;;;;;;4.49;75.36;100011.31;2181976;79;21005;-75
2022/02/23 05:10:04;;;;;;;10.85;2.65;;;;;;;4.48;75.21;100019.34;2185886;79;21057;-74
2022/02/23 05:13:06;;;;;;;13.13;3.25;;;;;;;4.46;73.80;100014.70;2181297;79;21063;-75
2022/02/23 05:16:07;;;;;;;13.35;2.92;;;;;;;4.42;74.31;100030.34;2184721;79;21334;-77
2022/02/23 05:19:09;;;;;;;13.62;3.47;;;;;;;4.35;74.14;100045.80;2177805;79;21009;-75
2022/02/23 05:22:11;;;;;;;15.63;4.72;;;;;;;4.30;73.76;100047.15;2184557;79;20977;-75
2022/02/23 05:25:13;;;;;;;16.23;4.35;;;;;;;4.25;73.38;100060.20;2216266;79;21570;-75
2022/02/23 05:28:15;;;;;;;19.77;3.80;;;;;;;4.18;73.19;100062.97;2212821;79;21525;-74
2022/02/23 05:31:17;;;;;;;20.32;3.22;;;;;;;4.13;73.15;100068.25;2215083;79;21036;-74
2022/02/23 05:34:19;;;;;;;12.75;2.98;;;;;;;4.09;73.32;100083.91;2215623;79;21056;-76
2022/02/23 05:37:21;;;;;;;11.85;3.02;;;;;;;4.09;72.70;100073.41;2216468;79;21032;-76
2022/02/23 05:40:22;;;;;;;19.20;3.50;;;;;;;4.12;73.13;100083.66;2214509;79;21064;-73
2022/02/23 05:43:24;;;;;;;12.03;2.75;;;;;;;4.12;73.05;100094.99;2215017;79;21036;-78
2022/02/23 05:46:25;;;;;;;20.15;3.98;;;;;;;4.13;72.72;100095.82;2216881;79;21059;-86
2022/02/23 05:49:27;;;;;;;10.70;3.35;;;;;;;4.12;72.99;100107.30;2212447;79;20997;-79
2022/02/23 05:52:28;;;;;;;15.65;2.92;;;;;;;4.11;72.97;100109.55;2212973;79;21044;-78
2022/02/23 05:55:32;;;;;;;15.05;3.15;;;;;;;4.11;72.76;100112.17;2217901;79;21033;-83
2022/02/23 05:58:33;;;;;;;14.40;2.55;;;;;;;4.11;73.19;100124.84;2215016;79;21096;-77
2022/02/23 06:01:36;;;;;;;17.95;3.35;;;;;;;4.12;72.90;100115.17;2213750;79;21040;-79
2022/02/23 06:04:38;;;;;;;11.48;3.30;;;;;;;4.15;73.09;100130.68;2213317;79;21016;-80
2022/02/23 06:07:40;;;;;;;15.58;3.70;;;;;;;4.16;73.29;100131.02;2214527;79;21431;-81
2022/02/23 06:10:42;;;;;;;15.95;3.70;;;;;;;4.15;73.25;100145.95;2214375;79;22253;-81
2022/02/23 06:13:44;;;;;;;16.57;3.75;;;;;;;4.13;73.22;100151.80;2215927;79;21005;-80
2022/02/23 06:16:46;;;;;;;14.25;4.08;;;;;;;4.11;73.12;100159.44;2216028;79;20997;-81
2022/02/23 06:19:48;;;;;;;13.18;3.30;;;;;;;4.10;73.33;100165.66;2215566;78;21051;-81
2022/02/23 06:22:51;;;;;;;14.98;3.45;;;;;;;4.10;73.35;100176.16;2217989;79;21052;-81
2022/02/23 06:25:55;;;;;;;18.48;3.75;;;;;;;4.07;73.30;100180.36;2213967;79;21057;-81
2022/02/23 06:28:57;;;;;;;13.50;3.25;;;;;;;4.07;73.51;100194.80;2173308;80;22184;-81
2022/02/23 06:32:05;;;;;;;13.53;3.52;;;;;;;4.06;73.62;100205.78;2212068;79;21001;-80
2022/02/23 06:35:08;;;;;;;12.90;3.67;;;;;;;4.06;73.60;100202.33;2176175;80;21020;-82
2022/02/23 06:38:10;;;;;;;13.00;3.67;;;;;;;4.02;73.54;100203.86;2147175;81;21097;-81
2022/02/23 06:41:18;;;;;;;15.28;3.90;;;;;;;4.03;73.57;100210.80;2215641;79;21350;-83
2022/02/23 06:44:23;;;;;;;15.00;3.80;;;;;;;4.10;73.58;100224.27;2213329;79;21016;-82
2022/02/23 06:47:27;;;;;;;14.43;3.10;;;;;;;4.17;73.47;100226.77;2212036;79;21068;-81
2022/02/23 06:50:28;;;;;;;13.90;3.80;;;;;;;4.18;73.58;100244.67;2217415;79;21567;-81
2022/02/23 06:53:31;;;;;;;17.00;3.58;;;;;;;4.19;73.69;100251.58;2213211;79;21554;-83
2022/02/23 06:56:36;;;;;;;12.58;2.62;;;;;;;4.17;73.62;100258.29;2213176;79;21056;-81
2022/02/23 06:59:39;;;;;;;17.20;2.92;;;;;;;4.17;73.61;100265.34;2213994;79;21034;-82
2022/02/23 07:02:41;;;;;;;16.27;3.40;;;;;;;4.17;73.50;100266.16;2213656;79;21611;-81
2022/02/23 07:05:43;;;;;;;12.63;3.60;;;;;;;4.26;73.84;100276.41;2216245;79;21029;-81
2022/02/23 07:08:48;;;;;;;7.58;2.77;;;;;;;4.29;73.59;100298.98;2217363;79;21025;-84
2022/02/23 07:11:49;;;;;;;11.05;2.83;;;;;;;4.27;73.41;100299.09;2215937;79;21020;-81
2022/02/23 07:14:51;;;;;;;17.40;3.45;;;;;;;4.33;73.46;100323.55;2175350;80;21600;-81
2022/02/23 07:17:53;;;;;;;12.37;3.30;;;;;;;4.58;73.05;100333.44;2161796;81;21135;-81
2022/02/23 07:20:56;;;;;;;13.78;2.98;;;;;;;5.01;72.96;100335.20;2162797;80;21298;-81
2022/02/23 07:23:57;;;;;;;10.32;2.77;;;;;;;5.17;71.72;100343.03;2159797;80;21028;-82
2022/02/23 07:26:59;;;;;;;17.32;3.87;;;;;;;5.11;72.01;100351.91;2160860;80;21088;-81
2022/02/23 07:30:04;;;;;;;16.65;3.22;;;;;;;5.02;72.19;100361.39;2181679;79;22291;-84
2022/02/23 07:33:06;;;;;;;13.78;3.45;;;;;;;4.94;72.46;100358.06;2164102;80;21051;-81
2022/02/23 07:36:08;;;;;;;20.02;3.55;;;;;;;4.82;72.32;100376.16;2213933;79;21068;-81
2022/02/23 07:39:10;;;;;;;18.00;3.80;;;;;;;4.76;72.57;100382.37;2217031;79;21585;-81
2022/02/23 07:42:11;;;;;;;12.40;3.42;;;;;;;4.70;72.83;100371.41;2214243;79;21053;-83
2022/02/23 07:45:14;;;;;;;15.80;4.53;;;;;;;4.71;72.81;100377.50;2188833;79;21523;-84
2022/02/23 07:48:15;;;;;;;12.73;3.45;;;;;;;4.73;72.88;100378.22;2161800;81;21598;-82
2022/02/23 07:51:17;;;;;;;11.05;3.25;;;;;;;4.79;72.98;100368.52;2218273;79;21005;-82
2022/02/23 07:54:19;;;;;;;18.73;3.65;;;;;;;4.83;73.00;100377.82;2218844;79;21000;-82
2022/02/23 07:57:20;;;;;;;18.50;4.10;;;;;;;4.88;72.55;100377.46;2214114;79;21583;-82
2022/02/23 08:00:22;;;;;;;18.35;3.20;;;;;;;4.91;72.63;100385.92;2214563;79;21028;-81
2022/02/23 08:03:26;;;;;;;15.32;3.37;;;;;;;5.36;72.80;100392.34;2218619;79;21511;-83
2022/02/23 08:06:28;;;;;;;9.50;3.40;;;;;;;5.89;72.57;100393.27;2217178;79;21564;-82
2022/02/23 08:09:30;;;;;;;17.12;3.60;;;;;;;6.40;71.66;100395.07;2176740;80;21495;-82
2022/02/23 08:12:32;;;;;;;18.55;3.50;;;;;;;6.68;70.58;100392.17;2171258;81;20992;-81
2022/02/23 08:22:18;;;;;;;11.15;3.37;;;;;;;6.94;69.33;100397.78;2217243;79;21088;-82
2022/02/23 08:25:20;;;;;;;16.20;3.25;;;;;;;6.69;69.23;100421.52;2211321;79;21806;-81
2022/02/23 08:28:21;;;;;;;12.18;2.65;;;;;;;6.47;69.02;100421.23;2189401;79;21020;-83
2022/02/23 08:31:23;;;;;;;13.98;3.47;;;;;;;6.25;68.81;100401.16;2216998;79;20998;-80
2022/02/23 08:34:29;;;;;;;13.85;3.72;;;;;;;6.04;68.68;100435.45;2216053;78;20997;-83
2022/02/23 08:37:30;;;;;;;15.98;3.20;;;;;;;6.04;69.81;100436.77;2190766;79;21550;-82
2022/02/23 08:40:32;;;;;;;10.03;3.35;;;;;;;6.11;69.27;100443.20;2213313;79;20997;-81
2022/02/23 08:43:34;;;;;;;15.43;3.45;;;;;;;6.09;69.21;100446.44;2208516;79;20985;-81
2022/02/23 08:46:38;;;;;;;20.95;3.92;;;;;;;6.56;69.09;100454.73;2209801;79;21445;-81
2022/02/23 08:49:40;;;;;;;13.83;2.87;;;;;;;6.89;68.65;100451.42;2216891;79;21048;-81
2022/02/23 08:52:41;;;;;;;16.90;3.05;;;;;;;7.18;67.96;100455.47;2215673;79;21294;-81
2022/02/23 08:55:43;;;;;;;19.65;4.42;;;;;;;7.36;67.03;100458.25;2218124;79;21014;-82
2022/02/23 08:58:45;;;;;;;11.65;2.98;;;;;;;7.12;66.72;100466.08;2216245;79;21028;-81
2022/02/23 09:01:46;;;;;;;9.33;2.83;;;;;;;6.84;66.54;100471.63;2215373;78;21025;-84
2022/02/23 09:04:48;;;;;;;10.65;2.98;;;;;;;6.65;67.49;100478.15;2216045;78;21044;-81
2022/02/23 09:07:49;;;;;;;12.95;3.20;;;;;;;6.79;66.63;100476.95;2218325;78;21056;-80
2022/02/23 09:10:51;;;;;;;18.55;4.03;;;;;;;7.05;66.90;100476.81;2216774;78;21029;-81
2022/02/23 09:13:53;;;;;;;12.37;3.42;;;;;;;6.89;65.21;100480.44;2218499;79;21496;-82
2022/02/23 09:16:54;;;;;;;17.17;3.37;;;;;;;6.80;66.13;100482.56;2209136;79;21028;-82
2022/02/23 09:19:57;;;;;;;12.78;3.15;;;;;;;6.63;65.42;100493.26;2211186;79;21013;-81
2022/02/23 09:22:59;;;;;;;18.17;3.70;;;;;;;6.47;65.67;100497.19;2140904;81;21032;-83
2022/02/23 09:26:04;;;;;;;14.73;3.35;;;;;;;6.38;66.53;100507.20;2184485;79;21008;-80
2022/02/23 09:29:04;;;;;;;13.83;3.37;;;;;;;6.49;66.40;100508.45;2207463;78;21294;-80
2022/02/23 09:32:06;;;;;;;15.63;3.00;;;;;;;6.55;66.15;100497.86;2211806;78;22235;-80
2022/02/23 09:35:10;;;;;;;17.42;3.67;;;;;;;6.68;64.66;100516.95;2209662;79;20993;-81
2022/02/23 09:38:12;;;;;;;8.93;3.02;;;;;;;6.60;64.80;100516.77;2208871;78;21080;-81
2022/02/23 09:41:16;;;;;;;9.40;3.20;;;;;;;6.54;65.11;100514.66;2187859;79;21049;-80
2022/02/23 09:44:18;;;;;;;14.58;3.05;;;;;;;6.59;63.67;100520.38;2205936;79;21511;-80
2022/02/23 09:47:20;;;;;;;17.57;3.65;;;;;;;6.64;64.24;100498.38;2183673;79;21025;-81
2022/02/23 09:50:22;;;;;;;17.65;3.47;;;;;;;6.82;62.89;100516.25;2182682;79;21001;-82
2022/02/23 09:53:24;;;;;;;12.28;3.10;;;;;;;6.91;63.29;100518.91;2208156;79;20996;-78
2022/02/23 09:56:26;;;;;;;17.30;3.90;;;;;;;7.12;61.74;100502.16;2182286;79;21056;-80
2022/02/23 09:59:28;;;;;;;11.10;3.35;;;;;;;7.26;62.07;100516.78;2183064;79;21143;-82
2022/02/23 10:02:29;;;;;;;12.25;2.47;;;;;;;7.57;61.67;100516.20;2163688;81;21504;-80
2022/02/23 10:05:41;;;;;;;13.55;3.25;;;;;;;7.69;62.00;100524.86;2184046;79;21047;-80
2022/02/23 10:08:43;;;;;;;15.78;4.20;;;;;;;7.82;59.45;100497.66;2190928;79;21046;-81
2022/02/23 10:11:50;;;;;;;10.78;2.80;;;;;;;7.98;60.53;100519.08;2177429;79;21532;-81
2022/02/23 10:15:11;;;;;;;11.53;3.00;;;;;;;8.34;58.13;100507.91;2185174;79;21100;-83
2022/02/23 10:18:20;;;;;;;8.43;2.70;;;;;;;8.54;59.31;100520.12;2184252;79;21418;-83
2022/02/23 10:21:23;;;;;;;10.40;2.77;;;;;;;8.74;57.22;100511.63;2167343;79;28526;-82
2022/02/23 10:24:38;;;;;;;13.22;3.15;;;;;;;8.60;57.14;100533.27;2145834;80;21052;-79
2022/02/23 10:27:39;;;;;;;16.45;2.60;;;;;;;8.48;57.28;100540.54;2148230;80;21185;-80
2022/02/23 10:31:00;;;;;;;13.48;3.35;;;;;;;8.43;57.11;100533.52;2147460;81;21061;-80
2022/02/23 10:34:07;;;;;;;12.23;2.87;;;;;;;8.50;56.60;100521.38;2211513;78;20981;-80
2022/02/23 10:37:09;;;;;;;13.98;2.60;;;;;;;8.48;56.54;100534.76;2203529;79;21074;-81
2022/02/23 10:40:12;;;;;;;10.93;2.52;;;;;;;8.52;55.88;100537.94;2204209;79;21013;-80
2022/02/23 10:43:28;;;;;;;14.15;2.62;;;;;;;8.63;55.85;100551.49;2212888;79;21073;-81
2022/02/23 10:46:30;;;;;;;13.70;3.20;;;;;;;8.40;56.22;100550.50;2204488;79;23143;-81
2022/02/23 10:49:31;;;;;;;11.57;3.12;;;;;;;8.27;56.94;100563.14;2214601;78;21658;-80
2022/02/23 10:52:37;;;;;;;13.55;3.20;;;;;;;8.12;57.66;100565.88;2184578;79;21084;-84
2022/02/23 10:55:41;;;;;;;9.48;2.67;;;;;;;7.94;56.60;100573.66;2214581;78;21026;-81
2022/02/23 10:58:41;;;;;;;9.63;3.00;;;;;;;7.88;57.69;100567.11;2180460;79;21029;-80
2022/02/23 11:01:47;;;;;;;12.05;2.55;;;;;;;7.88;57.74;100578.17;2162152;81;21591;-80
2022/02/23 11:04:49;;;;;;;10.08;2.33;;;;;;;7.93;56.48;100563.58;2189559;79;21494;-80
2022/02/23 11:07:53;;;;;;;9.43;3.25;;;;;;;7.83;56.81;100577.28;2191705;79;21028;-81
2022/02/23 11:10:56;;;;;;;15.70;3.05;;;;;;;7.75;56.90;100572.68;2218353;78;20965;-80
2022/02/23 11:14:02;;;;;;;9.50;2.40;;;;;;;7.72;57.08;100602.02;2148311;81;21045;-80
2022/02/23 11:17:03;;;;;;;14.40;3.22;;;;;;;7.63;55.79;100573.30;2157974;80;21063;-81
2022/02/23 11:20:06;;;;;;;13.70;2.87;;;;;;;7.60;55.89;100589.87;2157006;81;21585;-81
2022/02/23 11:23:08;;;;;;;9.58;2.37;;;;;;;7.56;55.97;100595.09;2155226;81;21111;-81
2022/02/23 11:26:15;;;;;;;12.70;2.90;;;;;;;7.78;55.28;100586.10;2181007;80;20997;-82
2022/02/23 11:29:39;;;;;;;11.35;2.60;;;;;;;8.15;55.54;100601.28;2183251;79;21033;-81
2022/02/23 11:32:43;;;;;;;8.65;2.85;;;;;;;8.28;55.19;100588.63;2158706;81;21568;-84
2022/02/23 11:35:50;;;;;;;10.35;2.55;;;;;;;8.28;54.55;100591.27;2179242;79;21056;-81
2022/02/23 11:38:51;;;;;;;10.15;2.60;;;;;;;8.06;53.79;100585.77;2177318;79;21770;-84
2022/02/23 11:41:57;;;;;;;12.58;2.92;;;;;;;8.02;54.49;100585.20;2157962;81;21081;-80
2022/02/23 11:45:16;;;;;;;11.18;2.47;;;;;;;8.00;54.49;100599.05;2146139;81;21066;-80
2022/02/23 11:48:16;;;;;;;10.05;2.77;;;;;;;7.90;54.25;100618.02;2166843;81;21097;-79
2022/02/23 11:51:31;;;;;;;8.00;2.25;;;;;;;7.78;53.80;100613.35;2170537;81;21134;-80
2022/02/23 11:55:07;;;;;;;13.65;2.83;;;;;;;7.66;54.58;100625.02;2171013;81;21581;-79
2022/02/23 11:58:09;;;;;;;12.00;2.98;;;;;;;7.63;54.56;100620.01;2169337;81;21559;-79
2022/02/23 12:01:10;;;;;;;10.75;2.62;;;;;;;7.67;55.20;100629.81;2176001;81;21597;-80
2022/02/23 12:04:14;;;;;;;12.58;3.05;;;;;;;7.72;55.46;100631.56;2150971;82;21045;-79
2022/02/23 12:07:16;;;;;;;9.48;2.87;;;;;;;7.76;54.80;100628.98;2170170;81;21347;-80
2022/02/23 12:10:27;;;;;;;11.15;2.55;;;;;;;7.77;55.12;100631.97;2151774;80;21009;-79
2022/02/23 12:13:44;;;;;;;12.68;2.65;;;;;;;7.82;55.07;100632.39;2169049;81;21027;-78
2022/02/23 12:16:50;;;;;;;13.50;3.00;;;;;;;7.81;55.45;100626.28;2145430;82;21802;-80
2022/02/23 12:19:52;;;;;;;14.87;3.87;;;;;;;7.96;55.58;100639.92;2144019;82;21450;-80
2022/02/23 12:23:06;;;;;;;7.70;2.65;;;;;;;7.86;55.50;100638.61;2144286;82;21111;-80
2022/02/23 12:26:15;;;;;;;10.63;3.20;;;;;;;7.73;55.59;100647.75;2146497;81;22131;-82
2022/02/23 12:29:17;;;;;;;10.60;2.47;;;;;;;7.62;55.36;100641.59;2146151;81;20963;-80
2022/02/23 12:32:24;;;;;;;10.40;2.60;;;;;;;7.69;55.51;100654.28;2144357;81;21033;-80
2022/02/23 12:35:25;;;;;;;9.33;3.10;;;;;;;7.74;55.83;100664.80;2143856;81;21108;-79
2022/02/23 12:38:36;;;;;;;8.93;3.08;;;;;;;7.76;55.11;100639.55;2148105;82;20978;-80
2022/02/23 12:41:39;;;;;;;8.40;2.70;;;;;;;7.75;53.64;100657.70;2147284;82;21016;-79
2022/02/23 12:44:42;;;;;;;13.15;3.20;;;;;;;7.80;52.87;100654.17;2216315;79;21074;-79
2022/02/23 12:48:01;;;;;;;9.58;2.75;;;;;;;7.75;53.63;100662.98;2192080;79;21040;-81
2022/02/23 12:51:09;;;;;;;6.70;2.08;;;;;;;7.76;53.88;100656.23;2210284;79;21068;-80
2022/02/23 12:54:13;;;;;;;11.60;2.55;;;;;;;7.67;53.47;100678.18;2215639;79;21037;-81
2022/02/23 12:57:17;;;;;;;10.82;3.37;;;;;;;7.56;52.97;100673.83;2213177;79;21036;-79
2022/02/23 13:00:26;;;;;;;10.85;2.95;;;;;;;7.55;53.39;100680.09;2214329;79;21518;-84
2022/02/23 13:03:28;;;;;;;9.43;2.55;;;;;;;7.54;53.77;100688.13;2214229;79;20981;-79
2022/02/23 13:06:34;;;;;;;11.00;2.70;;;;;;;7.64;53.54;100687.20;2212265;79;21532;-80
2022/02/23 13:09:39;;;;;;;20.40;8.13;;;;;;;7.90;52.91;100695.14;2184032;80;21482;-82
2022/02/23 13:12:46;;;;;;;12.85;3.83;;;;;;;7.91;52.94;100696.80;2125015;81;22161;-80
2022/02/23 13:15:59;;;;;;;11.33;2.80;;;;;;;7.95;52.65;100683.19;2210920;79;21012;-80
2022/02/23 13:19:13;;;;;;;10.85;3.10;;;;;;;8.03;52.73;100691.28;2214386;79;21009;-80
2022/02/23 13:22:19;;;;;;;11.22;2.95;;;;;;;8.16;52.59;100698.10;2184181;79;20997;-77
2022/02/23 13:25:22;;;;;;;7.33;2.50;;;;;;;8.26;52.53;100701.11;2170444;81;20978;-81
2022/02/23 13:28:24;;;;;;;9.55;2.75;;;;;;;8.17;51.41;100707.72;2214493;79;21397;-79
2022/02/23 13:31:34;;;;;;;17.23;4.05;;;;;;;8.00;51.15;100709.22;2182564;80;21025;-80
2022/02/23 13:34:41;;;;;;;7.83;3.08;;;;;;;7.91;50.73;100712.16;2214371;79;21043;-80
2022/02/23 13:37:46;;;;;;;14.47;3.77;;;;;;;7.98;51.56;100708.52;2211521;79;21040;-79
2022/02/23 13:40:47;;;;;;;15.08;4.33;;;;;;;7.99;52.37;100705.72;2209195;79;22263;-80
2022/02/23 13:43:48;;;;;;;8.55;2.60;;;;;;;7.96;52.73;100708.63;2202879;79;22199;-80
2022/02/23 13:47:04;;;;;;;11.03;3.33;;;;;;;7.96;52.81;100721.02;2190180;79;21056;-79
2022/02/23 13:50:26;;;;;;;7.45;2.67;;;;;;;8.01;52.47;100713.52;2170041;80;20978;-79
2022/02/23 13:53:32;;;;;;;9.88;2.72;;;;;;;8.13;52.13;100714.23;2185036;80;21419;-80
2022/02/23 13:56:31;;;;;;;8.53;2.83;;;;;;;8.18;52.47;100704.92;2193455;80;21029;-79
2022/02/23 13:59:38;;;;;;;6.75;2.62;;;;;;;8.29;51.74;100718.02;2196806;80;21036;-80
2022/02/23 14:02:43;;;;;;;10.98;3.10;;;;;;;8.36;51.34;100717.47;2192639;80;21025;-80
2022/02/23 14:06:11;;;;;;;17.37;4.92;;;;;;;8.28;50.58;100722.14;2198442;80;21994;-79
2022/02/23 14:09:13;;;;;;;17.25;4.45;;;;;;;8.21;50.66;100723.65;2195542;80;21002;-80
2022/02/23 14:12:18;;;;;;;12.13;3.25;;;;;;;8.13;50.83;100734.06;2154569;80;21587;-91
2022/02/23 14:15:22;;;;;;;15.20;4.60;;;;;;;8.03;50.80;100737.53;2173321;80;21028;-79
2022/02/23 14:18:28;;;;;;;13.70;4.85;;;;;;;7.90;51.25;100745.34;2149739;81;20993;-79
2022/02/23 14:21:29;;;;;;;10.82;3.70;;;;;;;7.74;51.45;100733.94;2146832;81;21077;-82
2022/02/23 14:24:35;;;;;;;13.83;4.62;;;;;;;7.62;51.56;100752.52;2144821;81;21002;-82
2022/02/23 14:27:42;;;;;;;10.82;3.45;;;;;;;7.64;51.83;100749.77;2146300;81;21116;-76
2022/02/23 14:30:44;;;;;;;11.48;3.20;;;;;;;7.65;51.94;100748.78;2178732;80;21033;-80
2022/02/23 14:33:45;;;;;;;15.50;4.30;;;;;;;7.59;51.44;100759.88;2182590;79;21000;-76
2022/02/23 14:36:50;;;;;;;13.43;4.10;;;;;;;7.50;52.18;100765.47;2177552;80;21087;-78
2022/02/23 14:39:53;;;;;;;18.60;4.40;;;;;;;7.50;52.34;100776.03;2181788;80;21543;-81
2022/02/23 14:42:54;;;;;;;18.85;4.75;;;;;;;7.55;52.96;100776.48;2172090;80;21104;-83
2022/02/23 14:45:56;;;;;;;14.05;4.35;;;;;;;7.57;52.98;100784.26;2150786;80;21078;-82
2022/02/23 14:48:58;;;;;;;14.07;3.80;;;;;;;7.62;53.32;100783.39;2176125;80;21036;-80